Darstellungsparameter: Aktuell verwendete Einstellungen:
Skalierung der Graphiken ... ?
xyx+y,   Skalierungsfaktor:      Skalierung: Modus: x, Faktor: 1
Darstellungszeitraum ... ?
Vom - - bis: - -   Zeitraum: 14.04.2016 - 16.04.2016
Min/Max/Avg-Anzeige ... ?
Zeige MMA aktuell
Zeige MMA Monat
Zeige MMA alles
Zeige --A aktuell
Zeige --A Monat
Zeige --A alles
Keine MMA-Anzeige
MMA:
Average (ber die Originaldaten)
MMA-Basis: 14.04.2016 - 16.04.2016
Quicknavigation für Darstellung... ?
Tage:      1T, 2T, 3T, 5T -1T -2T -3T -5T +1T +2T +3T +5T
Wochen: 1W, 2W, 3W -1W -2W -3W +1W +2W +3W
Monate: 1M, 3M, 6M -1M -3M -6M +1M +3M +6M
Jahre:    1J, 3J, 5J, 10J -1J -3J -5J -10J +1J +3J +5J +10J
Nutze für die Darstellung ... ?
Originaldaten oder Mittelwerte auf ...
Stundenbasis Tagesbasis Wochenbasis
Monatsbasis Jahresbasis      Datenbasis: Original-Daten
Darstellen als:
Statistik (Auto) Statistik J:M      Darstellung:
Zur Graphik,    zurück zur Übersicht aller Sensoren.
 
Tabellarische Datenbersicht: ?
 
Sensor: Nr:Datum:Temp:Abs-Feuchte:Windchill:Wind:
Aussen-T/F 1 14-04-2016 00:00:00 8.6 C 8.16 g/m*3 8.6 C 0 km/h
2 14-04-2016 00:05:00 8.6 C 8.16 g/m*3 8.6 C 0 km/h
3 14-04-2016 00:10:00 8.6 C 8.16 g/m*3 8.6 C 0 km/h
4 14-04-2016 00:15:00 8.6 C 8.25 g/m*3 8.6 C 0 km/h
5 14-04-2016 00:20:00 8.5 C 8.2 g/m*3 8.5 C 0 km/h
6 14-04-2016 00:25:00 8.5 C 8.2 g/m*3 8.5 C 3.2 km/h
7 14-04-2016 00:30:00 8.5 C 8.2 g/m*3 8.5 C 0 km/h
8 14-04-2016 00:35:00 8.5 C 8.2 g/m*3 8.5 C 0 km/h
9 14-04-2016 00:40:00 8.5 C 8.2 g/m*3 8.5 C 0 km/h
10 14-04-2016 00:45:00 8.5 C 8.2 g/m*3 8.5 C 0 km/h
11 14-04-2016 00:50:00 8.5 C 8.2 g/m*3 8.5 C 0 km/h
12 14-04-2016 00:55:00 8.5 C 8.2 g/m*3 8.5 C 0 km/h
13 14-04-2016 01:00:00 8.5 C 8.2 g/m*3 8.5 C 0 km/h
14 14-04-2016 01:05:00 8.5 C 8.2 g/m*3 8.5 C 0 km/h
15 14-04-2016 01:10:00 8.5 C 8.2 g/m*3 8.5 C 0 km/h
16 14-04-2016 01:15:00 8.5 C 8.2 g/m*3 8.5 C 0 km/h
17 14-04-2016 01:20:00 8.5 C 8.2 g/m*3 8.5 C 0 km/h
18 14-04-2016 01:25:00 8.4 C 8.14 g/m*3 8.4 C 0 km/h
19 14-04-2016 01:30:00 8.4 C 8.14 g/m*3 8.4 C 0 km/h
20 14-04-2016 01:35:00 8.4 C 8.14 g/m*3 8.4 C 0 km/h
21 14-04-2016 01:40:00 8.4 C 8.14 g/m*3 8.4 C 4.8 km/h
22 14-04-2016 01:45:00 8.3 C 8.09 g/m*3 8.3 C 4.8 km/h
23 14-04-2016 01:50:00 8.3 C 8.09 g/m*3 8.3 C 1.6 km/h
24 14-04-2016 01:55:00 8.3 C 8.09 g/m*3 8.3 C 1.6 km/h
25 14-04-2016 02:00:00 8.3 C 8.09 g/m*3 8.3 C 0 km/h
Sensor: Nr:Datum:Temp:Abs-Feuchte:Windchill:Wind:
Aussen-T/F 26 14-04-2016 02:05:00 8.3 C 8.09 g/m*3 8.3 C 0 km/h
27 14-04-2016 02:10:00 8.3 C 8.09 g/m*3 8.3 C 0 km/h
28 14-04-2016 02:15:00 8.2 C 8.04 g/m*3 8.2 C 0 km/h
29 14-04-2016 02:20:00 8.2 C 8.04 g/m*3 8.2 C 1.6 km/h
30 14-04-2016 02:25:00 8.1 C 7.99 g/m*3 8.1 C 1.6 km/h
31 14-04-2016 02:30:00 8 C 7.85 g/m*3 8 C 0 km/h
32 14-04-2016 02:35:00 7.8 C 7.75 g/m*3 7.8 C 0 km/h
33 14-04-2016 02:40:00 7.7 C 7.7 g/m*3 7.7 C 3.2 km/h
34 14-04-2016 02:45:00 7.5 C 7.6 g/m*3 7.5 C 3.2 km/h
35 14-04-2016 02:50:00 7.4 C 7.55 g/m*3 7.4 C 1.6 km/h
36 14-04-2016 02:55:00 7.3 C 7.51 g/m*3 7.3 C 3.2 km/h
37 14-04-2016 03:00:00 7.2 C 7.46 g/m*3 7.2 C 3.2 km/h
38 14-04-2016 03:05:00 7.2 C 7.46 g/m*3 7.2 C 3.2 km/h
39 14-04-2016 03:10:00 7.2 C 7.54 g/m*3 7.2 C 3.2 km/h
40 14-04-2016 03:15:00 7.1 C 7.49 g/m*3 7.1 C 3.2 km/h
41 14-04-2016 03:20:00 7.1 C 7.41 g/m*3 7.1 C 3.2 km/h
42 14-04-2016 03:25:00 6.9 C 7.31 g/m*3 6.9 C 3.2 km/h
43 14-04-2016 03:30:00 6.8 C 7.27 g/m*3 6.8 C 1.6 km/h
44 14-04-2016 03:35:00 6.7 C 7.22 g/m*3 6.7 C 0 km/h
45 14-04-2016 03:40:00 6.7 C 7.22 g/m*3 6.7 C 0 km/h
46 14-04-2016 03:45:00 6.6 C 7.17 g/m*3 6.6 C 0 km/h
47 14-04-2016 03:50:00 6.5 C 7.12 g/m*3 6.5 C 0 km/h
48 14-04-2016 03:55:00 6.4 C 7.15 g/m*3 6.4 C 0 km/h
49 14-04-2016 04:00:00 6.4 C 7.15 g/m*3 6.4 C 0 km/h
50 14-04-2016 04:05:00 6.3 C 7.03 g/m*3 6.3 C 0 km/h
Sensor: Nr:Datum:Temp:Abs-Feuchte:Windchill:Wind:
Aussen-T/F 51 14-04-2016 04:10:00 6.3 C 7.11 g/m*3 6.3 C 1.6 km/h
52 14-04-2016 04:15:00 6.2 C 7.06 g/m*3 6.2 C 0 km/h
53 14-04-2016 04:20:00 6.2 C 7.06 g/m*3 6.2 C 0 km/h
54 14-04-2016 04:25:00 6.2 C 7.06 g/m*3 6.2 C 0 km/h
55 14-04-2016 04:30:00 6.1 C 7.01 g/m*3 6.1 C 0 km/h
56 14-04-2016 04:35:00 6.1 C 7.01 g/m*3 6.1 C 0 km/h
57 14-04-2016 04:40:00 6 C 6.97 g/m*3 6 C 0 km/h
58 14-04-2016 04:45:00 6 C 6.97 g/m*3 6 C 0 km/h
59 14-04-2016 04:50:00 6 C 6.97 g/m*3 6 C 0 km/h
60 14-04-2016 04:55:00 5.9 C 6.92 g/m*3 5.9 C 0 km/h
61 14-04-2016 05:00:00 5.8 C 6.88 g/m*3 5.8 C 0 km/h
62 14-04-2016 05:05:00 5.7 C 6.83 g/m*3 5.7 C 0 km/h
63 14-04-2016 05:10:00 5.6 C 6.79 g/m*3 5.6 C 0 km/h
64 14-04-2016 05:15:00 5.5 C 6.74 g/m*3 5.5 C 1.6 km/h
65 14-04-2016 05:20:00 5.4 C 6.7 g/m*3 5.4 C 0 km/h
66 14-04-2016 05:25:00 5.3 C 6.65 g/m*3 5.3 C 0 km/h
67 14-04-2016 05:30:00 5.3 C 6.65 g/m*3 5.3 C 1.6 km/h
68 14-04-2016 05:35:00 5.3 C 6.65 g/m*3 5.3 C 4.8 km/h
69 14-04-2016 05:40:00 5.3 C 6.65 g/m*3 5.3 C 0 km/h
70 14-04-2016 05:45:00 5.2 C 6.61 g/m*3 5.2 C 0 km/h
71 14-04-2016 05:50:00 5.2 C 6.61 g/m*3 5.2 C 0 km/h
72 14-04-2016 05:55:00 5.2 C 6.61 g/m*3 5.2 C 3.2 km/h
73 14-04-2016 06:00:00 5.3 C 6.65 g/m*3 5.3 C 1.6 km/h
74 14-04-2016 06:05:00 5.3 C 6.65 g/m*3 5.3 C 3.2 km/h
75 14-04-2016 06:10:00 5.4 C 6.7 g/m*3 5.4 C 1.6 km/h
Sensor: Nr:Datum:Temp:Abs-Feuchte:Windchill:Wind:
Aussen-T/F 76 14-04-2016 06:15:00 5.5 C 6.81 g/m*3 5.5 C 3.2 km/h
77 14-04-2016 06:20:00 5.6 C 6.79 g/m*3 5.6 C 3.2 km/h
78 14-04-2016 06:25:00 5.6 C 6.79 g/m*3 5.6 C 0 km/h
79 14-04-2016 06:30:00 5.6 C 6.79 g/m*3 5.6 C 0 km/h
80 14-04-2016 06:35:00 5.6 C 6.79 g/m*3 5.6 C 0 km/h
81 14-04-2016 06:40:00 5.6 C 6.79 g/m*3 5.6 C 0 km/h
82 14-04-2016 06:45:00 5.6 C 6.79 g/m*3 5.6 C 0 km/h
83 14-04-2016 06:50:00 5.6 C 6.79 g/m*3 5.6 C 0 km/h
84 14-04-2016 06:55:00 5.6 C 6.79 g/m*3 5.6 C 3.2 km/h
85 14-04-2016 07:00:00 5.6 C 6.86 g/m*3 5.6 C 1.6 km/h
86 14-04-2016 07:05:00 5.6 C 6.86 g/m*3 5.6 C 0 km/h
87 14-04-2016 07:10:00 5.6 C 6.86 g/m*3 5.6 C 0 km/h
88 14-04-2016 07:15:00 5.6 C 6.86 g/m*3 5.6 C 3.2 km/h
89 14-04-2016 07:20:00 5.6 C 6.86 g/m*3 5.6 C 0 km/h
90 14-04-2016 07:25:00 5.5 C 6.81 g/m*3 5.5 C 0 km/h
91 14-04-2016 07:30:00 5.5 C 6.81 g/m*3 5.5 C 1.6 km/h
92 14-04-2016 07:35:00 5.5 C 6.81 g/m*3 5.5 C 3.2 km/h
93 14-04-2016 07:40:00 5.5 C 6.81 g/m*3 5.5 C 1.6 km/h
94 14-04-2016 07:45:00 5.6 C 6.86 g/m*3 5.6 C 3.2 km/h
95 14-04-2016 07:50:00 5.6 C 6.86 g/m*3 5.6 C 1.6 km/h
96 14-04-2016 07:55:00 5.6 C 6.86 g/m*3 5.6 C 0 km/h
97 14-04-2016 08:00:00 5.6 C 6.86 g/m*3 5.6 C 0 km/h
98 14-04-2016 08:05:00 5.6 C 6.86 g/m*3 5.6 C 0 km/h
99 14-04-2016 08:10:00 5.7 C 6.9 g/m*3 5.7 C 0 km/h
100 14-04-2016 08:15:00 5.7 C 6.9 g/m*3 5.7 C 1.6 km/h
Sensor: Nr:Datum:Temp:Abs-Feuchte:Windchill:Wind:
Aussen-T/F 101 14-04-2016 08:20:00 5.8 C 6.95 g/m*3 5.8 C 3.2 km/h
102 14-04-2016 08:25:00 5.8 C 6.95 g/m*3 5.8 C 4.8 km/h
103 14-04-2016 08:30:00 5.8 C 6.95 g/m*3 5.8 C 4.8 km/h
104 14-04-2016 08:35:00 5.8 C 6.95 g/m*3 5.8 C 3.2 km/h
105 14-04-2016 08:40:00 5.9 C 6.99 g/m*3 4.63 C 6.4 km/h
106 14-04-2016 08:45:00 5.9 C 6.99 g/m*3 4.63 C 6.4 km/h
107 14-04-2016 08:50:00 5.9 C 6.99 g/m*3 4.63 C 6.4 km/h
108 14-04-2016 08:55:00 6.1 C 7.09 g/m*3 6.1 C 4.8 km/h
109 14-04-2016 09:00:00 6.1 C 7.09 g/m*3 6.1 C 4.8 km/h
110 14-04-2016 09:05:00 6.1 C 7.09 g/m*3 4.86 C 6.4 km/h
111 14-04-2016 09:10:00 6.1 C 7.09 g/m*3 4.86 C 6.4 km/h
112 14-04-2016 09:15:00 6.1 C 7.09 g/m*3 6.1 C 4.8 km/h
113 14-04-2016 09:20:00 6.2 C 7.13 g/m*3 4.98 C 6.4 km/h
114 14-04-2016 09:25:00 6.2 C 7.13 g/m*3 6.2 C 4.8 km/h
115 14-04-2016 09:30:00 6.2 C 7.13 g/m*3 6.2 C 4.8 km/h
116 14-04-2016 09:35:00 6.2 C 7.13 g/m*3 6.2 C 4.8 km/h
117 14-04-2016 09:40:00 6.3 C 7.18 g/m*3 6.3 C 3.2 km/h
118 14-04-2016 09:45:00 6.3 C 7.18 g/m*3 4.64 C 8.1 km/h
119 14-04-2016 09:50:00 6.4 C 7.23 g/m*3 6.4 C 3.2 km/h
120 14-04-2016 09:55:00 6.6 C 7.32 g/m*3 6.6 C 3.2 km/h
121 14-04-2016 10:00:00 6.6 C 7.32 g/m*3 6.6 C 4.8 km/h
122 14-04-2016 10:05:00 6.7 C 7.37 g/m*3 6.7 C 3.2 km/h
123 14-04-2016 10:10:00 6.7 C 7.37 g/m*3 6.7 C 3.2 km/h
124 14-04-2016 10:15:00 6.8 C 7.42 g/m*3 6.8 C 1.6 km/h
125 14-04-2016 10:20:00 6.9 C 7.47 g/m*3 6.9 C 0 km/h
Sensor: Nr:Datum:Temp:Abs-Feuchte:Windchill:Wind:
Aussen-T/F 126 14-04-2016 10:25:00 7.1 C 7.57 g/m*3 7.1 C 0 km/h
127 14-04-2016 10:30:00 7.3 C 7.66 g/m*3 7.3 C 4.8 km/h
128 14-04-2016 10:35:00 7.4 C 7.71 g/m*3 7.4 C 4.8 km/h
129 14-04-2016 10:40:00 7.6 C 7.9 g/m*3 7.6 C 4.8 km/h
130 14-04-2016 10:45:00 7.7 C 7.95 g/m*3 6.71 C 6.4 km/h
131 14-04-2016 10:50:00 7.8 C 7.92 g/m*3 6.83 C 6.4 km/h
132 14-04-2016 10:55:00 7.8 C 8 g/m*3 6.83 C 6.4 km/h
133 14-04-2016 11:00:00 7.9 C 7.97 g/m*3 7.9 C 3.2 km/h
134 14-04-2016 11:05:00 8.1 C 8.07 g/m*3 8.1 C 4.8 km/h
135 14-04-2016 11:10:00 8.2 C 8.12 g/m*3 8.2 C 4.8 km/h
136 14-04-2016 11:15:00 8.2 C 8.12 g/m*3 8.2 C 1.6 km/h
137 14-04-2016 11:20:00 8.2 C 8.12 g/m*3 8.2 C 0 km/h
138 14-04-2016 11:25:00 8.3 C 8.18 g/m*3 8.3 C 3.2 km/h
139 14-04-2016 11:30:00 8.5 C 8.28 g/m*3 8.5 C 0 km/h
140 14-04-2016 11:35:00 8.7 C 8.39 g/m*3 8.7 C 1.6 km/h
141 14-04-2016 11:40:00 8.9 C 8.5 g/m*3 8.9 C 3.2 km/h
142 14-04-2016 11:45:00 9 C 8.55 g/m*3 9 C 0 km/h
143 14-04-2016 11:50:00 9.3 C 8.72 g/m*3 9.3 C 3.2 km/h
144 14-04-2016 11:55:00 9.5 C 8.74 g/m*3 9.5 C 3.2 km/h
145 14-04-2016 12:00:00 9.7 C 8.85 g/m*3 9.7 C 3.2 km/h
146 14-04-2016 12:05:00 9.9 C 8.87 g/m*3 9.9 C 3.2 km/h
147 14-04-2016 12:10:00 10.1 C 8.98 g/m*3 10.1 C 1.6 km/h
148 14-04-2016 12:15:00 10.4 C 8.96 g/m*3 9.83 C 6.4 km/h
149 14-04-2016 12:20:00 10.7 C 9.04 g/m*3 10.7 C 4.8 km/h
150 14-04-2016 12:25:00 10.9 C 9.05 g/m*3 10.04 C 8.1 km/h
Sensor: Nr:Datum:Temp:Abs-Feuchte:Windchill:Wind:
Aussen-T/F 151 14-04-2016 12:30:00 11.2 C 9.12 g/m*3 11.2 C 4.8 km/h
152 14-04-2016 12:35:00 11.5 C 9.19 g/m*3 11.5 C 1.6 km/h
153 14-04-2016 12:40:00 11.7 C 9.1 g/m*3 11.7 C 6.4 km/h
154 14-04-2016 12:45:00 11.9 C 9.11 g/m*3 11.9 C 4.8 km/h
155 14-04-2016 12:50:00 12.1 C 9.12 g/m*3 12.1 C 1.6 km/h
156 14-04-2016 12:55:00 12.3 C 9.01 g/m*3 12.3 C 3.2 km/h
157 14-04-2016 13:00:00 12.6 C 9.07 g/m*3 12.6 C 4.8 km/h
158 14-04-2016 13:05:00 12.8 C 8.74 g/m*3 12.8 C 4.8 km/h
159 14-04-2016 13:10:00 12.9 C 8.57 g/m*3 12.9 C 1.6 km/h
160 14-04-2016 13:15:00 13.1 C 8.44 g/m*3 13.1 C 1.6 km/h
161 14-04-2016 13:20:00 13.2 C 8.5 g/m*3 13.2 C 8.1 km/h
162 14-04-2016 13:25:00 13.3 C 8.66 g/m*3 13.3 C 6.4 km/h
163 14-04-2016 13:30:00 13.3 C 8.43 g/m*3 13.3 C 8.1 km/h
164 14-04-2016 13:35:00 13.5 C 8.66 g/m*3 13.5 C 9.7 km/h
165 14-04-2016 13:40:00 13.6 C 8.59 g/m*3 13.6 C 6.4 km/h
166 14-04-2016 13:45:00 13.7 C 8.53 g/m*3 13.7 C 6.4 km/h
167 14-04-2016 13:50:00 13.8 C 8.46 g/m*3 13.8 C 4.8 km/h
168 14-04-2016 13:55:00 13.9 C 8.39 g/m*3 13.9 C 4.8 km/h
169 14-04-2016 14:00:00 14 C 7.96 g/m*3 14 C 6.4 km/h
170 14-04-2016 14:05:00 14.1 C 8.13 g/m*3 14.1 C 3.2 km/h
171 14-04-2016 14:10:00 14.2 C 8.06 g/m*3 14.2 C 6.4 km/h
172 14-04-2016 14:15:00 14.4 C 7.79 g/m*3 14.4 C 6.4 km/h
173 14-04-2016 14:20:00 14.6 C 7.88 g/m*3 14.6 C 4.8 km/h
174 14-04-2016 14:25:00 14.8 C 7.6 g/m*3 14.8 C 6.4 km/h
175 14-04-2016 14:30:00 14.9 C 7.9 g/m*3 14.9 C 4.8 km/h
Sensor: Nr:Datum:Temp:Abs-Feuchte:Windchill:Wind:
Aussen-T/F 176 14-04-2016 14:35:00 14.9 C 7.14 g/m*3 14.9 C 0 km/h
177 14-04-2016 14:40:00 15.1 C 7.1 g/m*3 15.1 C 1.6 km/h
178 14-04-2016 14:45:00 15.4 C 6.96 g/m*3 15.4 C 9.7 km/h
179 14-04-2016 14:50:00 15.5 C 6.61 g/m*3 15.5 C 4.8 km/h
180 14-04-2016 14:55:00 15.5 C 6.87 g/m*3 15.5 C 9.7 km/h
181 14-04-2016 15:00:00 15.6 C 7.05 g/m*3 15.6 C 8.1 km/h
182 14-04-2016 15:05:00 15.7 C 6.96 g/m*3 15.7 C 8.1 km/h
183 14-04-2016 15:10:00 15.7 C 6.69 g/m*3 15.7 C 8.1 km/h
184 14-04-2016 15:15:00 15.8 C 6.6 g/m*3 15.8 C 12.9 km/h
185 14-04-2016 15:20:00 15.9 C 6.91 g/m*3 15.9 C 12.9 km/h
186 14-04-2016 15:25:00 15.9 C 6.37 g/m*3 15.9 C 6.4 km/h
187 14-04-2016 15:30:00 15.9 C 6.91 g/m*3 15.9 C 3.2 km/h
188 14-04-2016 15:35:00 15.9 C 6.77 g/m*3 15.9 C 4.8 km/h
189 14-04-2016 15:40:00 15.8 C 6.6 g/m*3 15.8 C 4.8 km/h
190 14-04-2016 15:45:00 15.9 C 7.04 g/m*3 15.9 C 0 km/h
191 14-04-2016 15:50:00 15.9 C 6.91 g/m*3 15.9 C 0 km/h
192 14-04-2016 15:55:00 16.2 C 7.17 g/m*3 16.2 C 0 km/h
193 14-04-2016 16:00:00 16.3 C 7.21 g/m*3 16.3 C 0 km/h
194 14-04-2016 16:05:00 16.3 C 7.21 g/m*3 16.3 C 0 km/h
195 14-04-2016 16:10:00 16.3 C 6.94 g/m*3 16.3 C 0 km/h
196 14-04-2016 16:15:00 16.2 C 7.31 g/m*3 16.2 C 0 km/h
197 14-04-2016 16:20:00 16.2 C 7.72 g/m*3 16.2 C 0 km/h
198 14-04-2016 16:25:00 16.4 C 6.84 g/m*3 16.4 C 0 km/h
199 14-04-2016 16:30:00 16.7 C 6.82 g/m*3 16.7 C 0 km/h
200 14-04-2016 16:35:00 16.6 C 6.92 g/m*3 16.6 C 6.4 km/h
Sensor: Nr:Datum:Temp:Abs-Feuchte:Windchill:Wind:
Aussen-T/F 201 14-04-2016 16:40:00 16.4 C 7.4 g/m*3 16.4 C 1.6 km/h
202 14-04-2016 16:45:00 16.4 C 6.84 g/m*3 16.4 C 4.8 km/h
203 14-04-2016 16:50:00 16.6 C 6.36 g/m*3 16.6 C 6.4 km/h
204 14-04-2016 16:55:00 16.9 C 6.47 g/m*3 16.9 C 4.8 km/h
205 14-04-2016 17:00:00 17.2 C 7.32 g/m*3 17.2 C 4.8 km/h
206 14-04-2016 17:05:00 17.1 C 6.99 g/m*3 17.1 C 1.6 km/h
207 14-04-2016 17:10:00 17 C 7.09 g/m*3 17 C 1.6 km/h
208 14-04-2016 17:15:00 17.1 C 6.84 g/m*3 17.1 C 3.2 km/h
209 14-04-2016 17:20:00 17.3 C 6.48 g/m*3 17.3 C 4.8 km/h
210 14-04-2016 17:25:00 17.5 C 6.56 g/m*3 17.5 C 8.1 km/h
211 14-04-2016 17:30:00 17.6 C 6.6 g/m*3 17.6 C 8.1 km/h
212 14-04-2016 17:35:00 17.6 C 6.6 g/m*3 17.6 C 8.1 km/h
213 14-04-2016 17:40:00 17.6 C 6.9 g/m*3 17.6 C 8.1 km/h
214 14-04-2016 17:45:00 17.7 C 6.64 g/m*3 17.7 C 12.9 km/h
215 14-04-2016 17:50:00 17.7 C 6.64 g/m*3 17.7 C 8.1 km/h
216 14-04-2016 17:55:00 17.8 C 6.68 g/m*3 17.8 C 4.8 km/h
217 14-04-2016 18:00:00 18.1 C 7.26 g/m*3 18.1 C 4.8 km/h
218 14-04-2016 18:05:00 18.3 C 6.88 g/m*3 18.3 C 4.8 km/h
219 14-04-2016 18:10:00 18.6 C 6.53 g/m*3 18.6 C 6.4 km/h
220 14-04-2016 18:15:00 18.6 C 6.53 g/m*3 18.6 C 6.4 km/h
221 14-04-2016 18:20:00 18.7 C 6.88 g/m*3 18.7 C 9.7 km/h
222 14-04-2016 18:25:00 18.7 C 6.72 g/m*3 18.7 C 4.8 km/h
223 14-04-2016 18:30:00 18.8 C 6.93 g/m*3 18.8 C 4.8 km/h
224 14-04-2016 18:35:00 18.8 C 6.76 g/m*3 18.8 C 6.4 km/h
225 14-04-2016 18:40:00 18.8 C 7.09 g/m*3 18.8 C 9.7 km/h
Sensor: Nr:Datum:Temp:Abs-Feuchte:Windchill:Wind:
Aussen-T/F 226 14-04-2016 18:45:00 18.8 C 7.25 g/m*3 18.8 C 9.7 km/h
227 14-04-2016 18:50:00 18.5 C 7.44 g/m*3 18.5 C 9.7 km/h
228 14-04-2016 18:55:00 18.4 C 7.55 g/m*3 18.4 C 4.8 km/h
229 14-04-2016 19:00:00 18.4 C 7.24 g/m*3 18.4 C 4.8 km/h
230 14-04-2016 19:05:00 18.4 C 7.24 g/m*3 18.4 C 3.2 km/h
231 14-04-2016 19:10:00 18.4 C 7.71 g/m*3 18.4 C 4.8 km/h
232 14-04-2016 19:15:00 18.2 C 7.46 g/m*3 18.2 C 12.9 km/h
233 14-04-2016 19:20:00 17.7 C 7.24 g/m*3 17.7 C 6.4 km/h
234 14-04-2016 19:25:00 17.2 C 7.32 g/m*3 17.2 C 6.4 km/h
235 14-04-2016 19:30:00 16.8 C 7.29 g/m*3 16.8 C 4.8 km/h
236 14-04-2016 19:35:00 16.6 C 7.77 g/m*3 16.6 C 4.8 km/h
237 14-04-2016 19:40:00 16.4 C 8.1 g/m*3 16.4 C 3.2 km/h
238 14-04-2016 19:45:00 16.2 C 8.41 g/m*3 16.2 C 1.6 km/h
239 14-04-2016 19:50:00 15.8 C 7.67 g/m*3 15.8 C 6.4 km/h
240 14-04-2016 19:55:00 15.6 C 7.85 g/m*3 15.6 C 3.2 km/h
241 14-04-2016 20:00:00 15.3 C 7.97 g/m*3 15.3 C 3.2 km/h
242 14-04-2016 20:05:00 15.1 C 8.26 g/m*3 15.1 C 4.8 km/h
243 14-04-2016 20:10:00 14.7 C 7.93 g/m*3 14.7 C 3.2 km/h
244 14-04-2016 20:15:00 14.4 C 8.28 g/m*3 14.4 C 1.6 km/h
245 14-04-2016 20:20:00 14.1 C 8.25 g/m*3 14.1 C 1.6 km/h
246 14-04-2016 20:25:00 13.8 C 8.34 g/m*3 13.8 C 3.2 km/h
247 14-04-2016 20:30:00 13.5 C 8.3 g/m*3 13.5 C 3.2 km/h
248 14-04-2016 20:35:00 13.3 C 8.32 g/m*3 13.3 C 3.2 km/h
249 14-04-2016 20:40:00 13.1 C 8.44 g/m*3 13.1 C 4.8 km/h
250 14-04-2016 20:45:00 12.9 C 8.45 g/m*3 12.9 C 3.2 km/h
Sensor: Nr:Datum:Temp:Abs-Feuchte:Windchill:Wind:
Aussen-T/F 251 14-04-2016 20:50:00 12.7 C 8.35 g/m*3 12.7 C 3.2 km/h
252 14-04-2016 20:55:00 12.6 C 8.41 g/m*3 12.6 C 1.6 km/h
253 14-04-2016 21:00:00 12.5 C 8.36 g/m*3 12.5 C 0 km/h
254 14-04-2016 21:05:00 12.4 C 8.3 g/m*3 12.4 C 0 km/h
255 14-04-2016 21:10:00 12.3 C 8.36 g/m*3 12.3 C 0 km/h
256 14-04-2016 21:15:00 12.2 C 8.31 g/m*3 12.2 C 0 km/h
257 14-04-2016 21:20:00 11.9 C 8.05 g/m*3 11.9 C 0 km/h
258 14-04-2016 21:25:00 11.8 C 8.21 g/m*3 11.8 C 0 km/h
259 14-04-2016 21:30:00 11.7 C 8.26 g/m*3 11.7 C 0 km/h
260 14-04-2016 21:35:00 11.6 C 8.21 g/m*3 11.6 C 0 km/h
261 14-04-2016 21:40:00 11.4 C 8.21 g/m*3 11.4 C 3.2 km/h
262 14-04-2016 21:45:00 11.3 C 8.06 g/m*3 11.3 C 3.2 km/h
263 14-04-2016 21:50:00 11.3 C 8.16 g/m*3 11.3 C 4.8 km/h
264 14-04-2016 21:55:00 11.3 C 8.16 g/m*3 11.3 C 4.8 km/h
265 14-04-2016 22:00:00 11.3 C 8.16 g/m*3 11.3 C 0 km/h
266 14-04-2016 22:05:00 11.3 C 8.16 g/m*3 11.3 C 0 km/h
267 14-04-2016 22:10:00 11.3 C 8.16 g/m*3 11.3 C 0 km/h
268 14-04-2016 22:15:00 11.2 C 8.21 g/m*3 11.2 C 4.8 km/h
269 14-04-2016 22:20:00 11.2 C 8.21 g/m*3 11.2 C 4.8 km/h
270 14-04-2016 22:25:00 11.1 C 8.26 g/m*3 11.1 C 3.2 km/h
271 14-04-2016 22:30:00 11.1 C 8.26 g/m*3 11.1 C 3.2 km/h
272 14-04-2016 22:35:00 11 C 8.21 g/m*3 11 C 3.2 km/h
273 14-04-2016 22:40:00 11 C 8.21 g/m*3 11 C 4.8 km/h
274 14-04-2016 22:45:00 10.9 C 8.16 g/m*3 10.9 C 3.2 km/h
275 14-04-2016 22:50:00 10.9 C 8.16 g/m*3 10.9 C 1.6 km/h
Sensor: Nr:Datum:Temp:Abs-Feuchte:Windchill:Wind:
Aussen-T/F 276 14-04-2016 22:55:00 10.9 C 8.26 g/m*3 10.9 C 3.2 km/h
277 14-04-2016 23:00:00 10.8 C 8.2 g/m*3 10.8 C 3.2 km/h
278 14-04-2016 23:05:00 10.8 C 8.2 g/m*3 10.8 C 1.6 km/h
279 14-04-2016 23:10:00 10.8 C 8.2 g/m*3 10.8 C 3.2 km/h
280 14-04-2016 23:15:00 10.9 C 8.26 g/m*3 10.9 C 3.2 km/h
281 14-04-2016 23:20:00 10.9 C 8.26 g/m*3 10.9 C 3.2 km/h
282 14-04-2016 23:25:00 10.9 C 8.36 g/m*3 10.9 C 1.6 km/h
283 14-04-2016 23:30:00 10.9 C 8.36 g/m*3 10.9 C 0 km/h
284 14-04-2016 23:35:00 10.9 C 8.36 g/m*3 10.9 C 3.2 km/h
285 14-04-2016 23:40:00 10.9 C 8.36 g/m*3 10.9 C 3.2 km/h
286 14-04-2016 23:45:00 10.9 C 8.36 g/m*3 10.9 C 1.6 km/h
287 14-04-2016 23:50:00 10.9 C 8.36 g/m*3 10.9 C 0 km/h
288 14-04-2016 23:55:00 10.9 C 8.36 g/m*3 10.9 C 0 km/h
289 15-04-2016 00:00:00 10.9 C 8.36 g/m*3 10.9 C 0 km/h
290 15-04-2016 00:05:00 10.9 C 8.36 g/m*3 10.9 C 0 km/h
291 15-04-2016 00:10:00 10.8 C 8.4 g/m*3 10.8 C 0 km/h
292 15-04-2016 00:15:00 10.8 C 8.4 g/m*3 10.8 C 0 km/h
293 15-04-2016 00:20:00 10.8 C 8.4 g/m*3 10.8 C 0 km/h
294 15-04-2016 00:25:00 10.8 C 8.5 g/m*3 10.8 C 0 km/h
295 15-04-2016 00:30:00 10.7 C 8.45 g/m*3 10.7 C 0 km/h
296 15-04-2016 00:35:00 10.7 C 8.35 g/m*3 10.7 C 0 km/h
297 15-04-2016 00:40:00 10.7 C 8.45 g/m*3 10.7 C 0 km/h
298 15-04-2016 00:45:00 10.6 C 8.39 g/m*3 10.6 C 0 km/h
299 15-04-2016 00:50:00 10.4 C 8.29 g/m*3 10.4 C 0 km/h
300 15-04-2016 00:55:00 10.3 C 8.33 g/m*3 10.3 C 0 km/h
Sensor: Nr:Datum:Temp:Abs-Feuchte:Windchill:Wind:
Aussen-T/F 301 15-04-2016 01:00:00 10.3 C 8.33 g/m*3 10.3 C 0 km/h
302 15-04-2016 01:05:00 10.2 C 8.28 g/m*3 10.2 C 0 km/h
303 15-04-2016 01:10:00 10.2 C 8.37 g/m*3 10.2 C 0 km/h
304 15-04-2016 01:15:00 10.1 C 8.32 g/m*3 10.1 C 0 km/h
305 15-04-2016 01:20:00 10 C 8.27 g/m*3 10 C 0 km/h
306 15-04-2016 01:25:00 9.9 C 8.22 g/m*3 9.9 C 0 km/h
307 15-04-2016 01:30:00 9.9 C 8.22 g/m*3 9.9 C 0 km/h
308 15-04-2016 01:35:00 9.9 C 8.22 g/m*3 9.9 C 0 km/h
309 15-04-2016 01:40:00 9.9 C 8.22 g/m*3 9.9 C 3.2 km/h
310 15-04-2016 01:45:00 9.9 C 8.22 g/m*3 9.9 C 4.8 km/h
311 15-04-2016 01:50:00 9.9 C 8.22 g/m*3 9.9 C 3.2 km/h
312 15-04-2016 01:55:00 10 C 8.27 g/m*3 10 C 0 km/h
313 15-04-2016 02:00:00 10.1 C 8.32 g/m*3 10.1 C 1.6 km/h
314 15-04-2016 02:05:00 10.1 C 8.32 g/m*3 10.1 C 0 km/h
315 15-04-2016 02:10:00 10.2 C 8.37 g/m*3 10.2 C 0 km/h
316 15-04-2016 02:15:00 10.2 C 8.37 g/m*3 10.2 C 0 km/h
317 15-04-2016 02:20:00 10.2 C 8.37 g/m*3 10.2 C 0 km/h
318 15-04-2016 02:25:00 10.2 C 8.37 g/m*3 10.2 C 0 km/h
319 15-04-2016 02:30:00 10.2 C 8.47 g/m*3 10.2 C 0 km/h
320 15-04-2016 02:35:00 10.2 C 8.47 g/m*3 10.2 C 0 km/h
321 15-04-2016 02:40:00 10.2 C 8.47 g/m*3 10.2 C 0 km/h
322 15-04-2016 02:45:00 10.2 C 8.47 g/m*3 10.2 C 0 km/h
323 15-04-2016 02:50:00 10.1 C 8.42 g/m*3 10.1 C 0 km/h
324 15-04-2016 02:55:00 10.1 C 8.42 g/m*3 10.1 C 0 km/h
325 15-04-2016 03:00:00 10 C 8.36 g/m*3 10 C 0 km/h
Sensor: Nr:Datum:Temp:Abs-Feuchte:Windchill:Wind:
Aussen-T/F 326 15-04-2016 03:05:00 10 C 8.36 g/m*3 10 C 0 km/h
327 15-04-2016 03:10:00 9.9 C 8.31 g/m*3 9.9 C 0 km/h
328 15-04-2016 03:15:00 9.9 C 8.31 g/m*3 9.9 C 0 km/h
329 15-04-2016 03:20:00 9.9 C 8.31 g/m*3 9.9 C 3.2 km/h
330 15-04-2016 03:25:00 9.9 C 8.31 g/m*3 9.9 C 3.2 km/h
331 15-04-2016 03:30:00 10.1 C 8.42 g/m*3 10.1 C 3.2 km/h
332 15-04-2016 03:35:00 10.1 C 8.42 g/m*3 10.1 C 4.8 km/h
333 15-04-2016 03:40:00 10.1 C 8.42 g/m*3 10.1 C 0 km/h
334 15-04-2016 03:45:00 10.2 C 8.47 g/m*3 10.2 C 3.2 km/h
335 15-04-2016 03:50:00 10.2 C 8.56 g/m*3 10.2 C 1.6 km/h
336 15-04-2016 03:55:00 10.2 C 8.66 g/m*3 10.2 C 3.2 km/h
337 15-04-2016 04:00:00 10.1 C 8.7 g/m*3 10.1 C 3.2 km/h
338 15-04-2016 04:05:00 10 C 8.64 g/m*3 10 C 3.2 km/h
339 15-04-2016 04:10:00 9.9 C 8.68 g/m*3 9.9 C 3.2 km/h
340 15-04-2016 04:15:00 9.9 C 8.68 g/m*3 9.9 C 0 km/h
341 15-04-2016 04:20:00 9.8 C 8.63 g/m*3 9.8 C 1.6 km/h
342 15-04-2016 04:25:00 9.8 C 8.63 g/m*3 9.8 C 0 km/h
343 15-04-2016 04:30:00 9.7 C 8.57 g/m*3 9.7 C 0 km/h
344 15-04-2016 04:35:00 9.7 C 8.67 g/m*3 9.7 C 0 km/h
345 15-04-2016 04:40:00 9.6 C 8.61 g/m*3 9.6 C 0 km/h
346 15-04-2016 04:45:00 9.6 C 8.61 g/m*3 9.6 C 0 km/h
347 15-04-2016 04:50:00 9.6 C 8.61 g/m*3 9.6 C 0 km/h
348 15-04-2016 04:55:00 9.6 C 8.61 g/m*3 9.6 C 0 km/h
349 15-04-2016 05:00:00 9.5 C 8.56 g/m*3 9.5 C 0 km/h
350 15-04-2016 05:05:00 9.5 C 8.56 g/m*3 9.5 C 0 km/h
Sensor: Nr:Datum:Temp:Abs-Feuchte:Windchill:Wind:
Aussen-T/F 351 15-04-2016 05:10:00 9.4 C 8.5 g/m*3 9.4 C 0 km/h
352 15-04-2016 05:15:00 9.4 C 8.5 g/m*3 9.4 C 0 km/h
353 15-04-2016 05:20:00 9.4 C 8.5 g/m*3 9.4 C 1.6 km/h
354 15-04-2016 05:25:00 9.3 C 8.45 g/m*3 9.3 C 1.6 km/h
355 15-04-2016 05:30:00 9.3 C 8.45 g/m*3 9.3 C 1.6 km/h
356 15-04-2016 05:35:00 9.2 C 8.39 g/m*3 9.2 C 1.6 km/h
357 15-04-2016 05:40:00 9.2 C 8.39 g/m*3 9.2 C 1.6 km/h
358 15-04-2016 05:45:00 9.2 C 8.48 g/m*3 9.2 C 0 km/h
359 15-04-2016 05:50:00 9.1 C 8.43 g/m*3 9.1 C 0 km/h
360 15-04-2016 05:55:00 9.1 C 8.43 g/m*3 9.1 C 0 km/h
361 15-04-2016 06:00:00 9.1 C 8.43 g/m*3 9.1 C 3.2 km/h
362 15-04-2016 06:05:00 9 C 8.38 g/m*3 9 C 1.6 km/h
363 15-04-2016 06:10:00 9 C 8.38 g/m*3 9 C 1.6 km/h
364 15-04-2016 06:15:00 8.9 C 8.32 g/m*3 8.9 C 1.6 km/h
365 15-04-2016 06:20:00 8.9 C 8.32 g/m*3 8.9 C 3.2 km/h
366 15-04-2016 06:25:00 8.9 C 8.32 g/m*3 8.9 C 3.2 km/h
367 15-04-2016 06:30:00 8.9 C 8.32 g/m*3 8.9 C 3.2 km/h
368 15-04-2016 06:35:00 8.9 C 8.32 g/m*3 8.9 C 3.2 km/h
369 15-04-2016 06:40:00 8.9 C 8.32 g/m*3 8.9 C 1.6 km/h
370 15-04-2016 06:45:00 9 C 8.38 g/m*3 9 C 0 km/h
371 15-04-2016 06:50:00 9 C 8.38 g/m*3 9 C 0 km/h
372 15-04-2016 06:55:00 9.1 C 8.43 g/m*3 9.1 C 0 km/h
373 15-04-2016 07:00:00 9.1 C 8.43 g/m*3 9.1 C 0 km/h
374 15-04-2016 07:05:00 9.1 C 8.43 g/m*3 9.1 C 0 km/h
375 15-04-2016 07:10:00 9.1 C 8.52 g/m*3 9.1 C 0 km/h
Sensor: Nr:Datum:Temp:Abs-Feuchte:Windchill:Wind:
Aussen-T/F 376 15-04-2016 07:15:00 9.1 C 8.52 g/m*3 9.1 C 0 km/h
377 15-04-2016 07:20:00 9.2 C 8.57 g/m*3 9.2 C 0 km/h
378 15-04-2016 07:25:00 9.2 C 8.57 g/m*3 9.2 C 0 km/h
379 15-04-2016 07:30:00 9.2 C 8.57 g/m*3 9.2 C 1.6 km/h
380 15-04-2016 07:35:00 9.3 C 8.63 g/m*3 9.3 C 1.6 km/h
381 15-04-2016 07:40:00 9.4 C 8.68 g/m*3 8.28 C 8.1 km/h
382 15-04-2016 07:45:00 9.6 C 8.79 g/m*3 8.52 C 8.1 km/h
383 15-04-2016 07:50:00 9.7 C 8.85 g/m*3 9.7 C 1.6 km/h
384 15-04-2016 07:55:00 9.8 C 8.91 g/m*3 9.8 C 0 km/h
385 15-04-2016 08:00:00 9.9 C 8.87 g/m*3 9.9 C 0 km/h
386 15-04-2016 08:05:00 10 C 8.93 g/m*3 10 C 1.6 km/h
387 15-04-2016 08:10:00 10.1 C 8.98 g/m*3 10.1 C 0 km/h
388 15-04-2016 08:15:00 10.2 C 9.04 g/m*3 10.2 C 3.2 km/h
389 15-04-2016 08:20:00 10.2 C 8.95 g/m*3 10.2 C 3.2 km/h
390 15-04-2016 08:25:00 10.3 C 9 g/m*3 9.72 C 6.4 km/h
391 15-04-2016 08:30:00 10.3 C 8.91 g/m*3 9.72 C 6.4 km/h
392 15-04-2016 08:35:00 10.4 C 8.96 g/m*3 10.4 C 4.8 km/h
393 15-04-2016 08:40:00 10.6 C 9.08 g/m*3 10.06 C 6.4 km/h
394 15-04-2016 08:45:00 10.7 C 9.04 g/m*3 10.18 C 6.4 km/h
395 15-04-2016 08:50:00 10.9 C 9.05 g/m*3 10.41 C 6.4 km/h
396 15-04-2016 08:55:00 11.1 C 9.07 g/m*3 11.1 C 8.1 km/h
397 15-04-2016 09:00:00 11.3 C 9.18 g/m*3 11.3 C 9.7 km/h
398 15-04-2016 09:05:00 11.4 C 9.03 g/m*3 11.4 C 11.3 km/h
399 15-04-2016 09:10:00 11.7 C 9.2 g/m*3 11.7 C 8.1 km/h
400 15-04-2016 09:15:00 11.8 C 9.16 g/m*3 11.8 C 6.4 km/h
Sensor: Nr:Datum:Temp:Abs-Feuchte:Windchill:Wind:
Aussen-T/F 401 15-04-2016 09:20:00 11.9 C 9.11 g/m*3 11.9 C 11.3 km/h
402 15-04-2016 09:25:00 12.1 C 9.22 g/m*3 12.1 C 12.9 km/h
403 15-04-2016 09:30:00 12.3 C 9.34 g/m*3 12.3 C 12.9 km/h
404 15-04-2016 09:35:00 12.4 C 9.29 g/m*3 12.4 C 19.3 km/h
405 15-04-2016 09:40:00 12.4 C 9.18 g/m*3 12.4 C 9.7 km/h
406 15-04-2016 09:45:00 12.5 C 9.24 g/m*3 12.5 C 11.3 km/h
407 15-04-2016 09:50:00 12.5 C 9.13 g/m*3 12.5 C 19.3 km/h
408 15-04-2016 09:55:00 12.6 C 9.29 g/m*3 12.6 C 11.3 km/h
409 15-04-2016 10:00:00 12.6 C 9.18 g/m*3 12.6 C 11.3 km/h
410 15-04-2016 10:05:00 12.7 C 9.24 g/m*3 12.7 C 6.4 km/h
411 15-04-2016 10:10:00 12.7 C 9.13 g/m*3 12.7 C 12.9 km/h
412 15-04-2016 10:15:00 12.8 C 9.3 g/m*3 12.8 C 11.3 km/h
413 15-04-2016 10:20:00 13 C 9.3 g/m*3 13 C 14.5 km/h
414 15-04-2016 10:25:00 13.2 C 9.19 g/m*3 13.2 C 19.3 km/h
415 15-04-2016 10:30:00 13.3 C 9.24 g/m*3 13.3 C 14.5 km/h
416 15-04-2016 10:35:00 13.4 C 9.07 g/m*3 13.4 C 16.1 km/h
417 15-04-2016 10:40:00 13.4 C 9.07 g/m*3 13.4 C 19.3 km/h
418 15-04-2016 10:45:00 13.5 C 9.01 g/m*3 13.5 C 16.1 km/h
419 15-04-2016 10:50:00 13.4 C 8.95 g/m*3 13.4 C 11.3 km/h
420 15-04-2016 10:55:00 13.5 C 9.24 g/m*3 13.5 C 17.7 km/h
421 15-04-2016 11:00:00 13.5 C 9.12 g/m*3 13.5 C 11.3 km/h
422 15-04-2016 11:05:00 13.4 C 9.07 g/m*3 13.4 C 14.5 km/h
423 15-04-2016 11:10:00 13.6 C 9.3 g/m*3 13.6 C 16.1 km/h
424 15-04-2016 11:15:00 13.8 C 9.17 g/m*3 13.8 C 11.3 km/h
425 15-04-2016 11:20:00 14.1 C 9.1 g/m*3 14.1 C 11.3 km/h
Sensor: Nr:Datum:Temp:Abs-Feuchte:Windchill:Wind:
Aussen-T/F 426 15-04-2016 11:25:00 14.1 C 9.1 g/m*3 14.1 C 11.3 km/h
427 15-04-2016 11:30:00 14.2 C 8.91 g/m*3 14.2 C 14.5 km/h
428 15-04-2016 11:35:00 14.1 C 8.86 g/m*3 14.1 C 9.7 km/h
429 15-04-2016 11:40:00 14.1 C 8.86 g/m*3 14.1 C 14.5 km/h
430 15-04-2016 11:45:00 14.1 C 8.86 g/m*3 14.1 C 9.7 km/h
431 15-04-2016 11:50:00 14.2 C 8.79 g/m*3 14.2 C 17.7 km/h
432 15-04-2016 11:55:00 14.3 C 8.72 g/m*3 14.3 C 17.7 km/h
433 15-04-2016 12:00:00 14.2 C 8.55 g/m*3 14.2 C 19.3 km/h
434 15-04-2016 12:05:00 14.2 C 8.43 g/m*3 14.2 C 17.7 km/h
435 15-04-2016 12:10:00 14.3 C 8.48 g/m*3 14.3 C 17.7 km/h
436 15-04-2016 12:15:00 14.4 C 8.28 g/m*3 14.4 C 16.1 km/h
437 15-04-2016 12:20:00 14.6 C 8.26 g/m*3 14.6 C 17.7 km/h
438 15-04-2016 12:25:00 14.7 C 8.44 g/m*3 14.7 C 20.9 km/h
439 15-04-2016 12:30:00 14.7 C 8.31 g/m*3 14.7 C 14.5 km/h
440 15-04-2016 12:35:00 14.7 C 8.18 g/m*3 14.7 C 20.9 km/h
441 15-04-2016 12:40:00 14.8 C 8.36 g/m*3 14.8 C 12.9 km/h
442 15-04-2016 12:45:00 14.8 C 8.11 g/m*3 14.8 C 24.1 km/h
443 15-04-2016 12:50:00 14.8 C 8.23 g/m*3 14.8 C 20.9 km/h
444 15-04-2016 12:55:00 14.9 C 8.16 g/m*3 14.9 C 16.1 km/h
445 15-04-2016 13:00:00 15 C 8.33 g/m*3 15 C 19.3 km/h
446 15-04-2016 13:05:00 15 C 8.08 g/m*3 15 C 16.1 km/h
447 15-04-2016 13:10:00 15.1 C 8.13 g/m*3 15.1 C 22.5 km/h
448 15-04-2016 13:15:00 15.1 C 8.13 g/m*3 15.1 C 22.5 km/h
449 15-04-2016 13:20:00 15.1 C 8.26 g/m*3 15.1 C 14.5 km/h
450 15-04-2016 13:25:00 15.2 C 8.31 g/m*3 15.2 C 17.7 km/h
Sensor: Nr:Datum:Temp:Abs-Feuchte:Windchill:Wind:
Aussen-T/F 451 15-04-2016 13:30:00 15.1 C 8.26 g/m*3 15.1 C 19.3 km/h
452 15-04-2016 13:35:00 15.1 C 8.26 g/m*3 15.1 C 14.5 km/h
453 15-04-2016 13:40:00 15.3 C 8.49 g/m*3 15.3 C 11.3 km/h
454 15-04-2016 13:45:00 15.6 C 8.51 g/m*3 15.6 C 14.5 km/h
455 15-04-2016 13:50:00 15.7 C 8.43 g/m*3 15.7 C 17.7 km/h
456 15-04-2016 13:55:00 15.9 C 8.4 g/m*3 15.9 C 19.3 km/h
457 15-04-2016 14:00:00 16.1 C 8.22 g/m*3 16.1 C 22.5 km/h
458 15-04-2016 14:05:00 16.2 C 8.41 g/m*3 16.2 C 16.1 km/h
459 15-04-2016 14:10:00 16.3 C 8.32 g/m*3 16.3 C 17.7 km/h
460 15-04-2016 14:15:00 16.4 C 8.23 g/m*3 16.4 C 19.3 km/h
461 15-04-2016 14:20:00 16.4 C 8.1 g/m*3 16.4 C 24.1 km/h
462 15-04-2016 14:25:00 16.2 C 7.86 g/m*3 16.2 C 24.1 km/h
463 15-04-2016 14:30:00 15.9 C 7.99 g/m*3 15.9 C 19.3 km/h
464 15-04-2016 14:35:00 15.8 C 7.81 g/m*3 15.8 C 14.5 km/h
465 15-04-2016 14:40:00 15.8 C 7.81 g/m*3 15.8 C 17.7 km/h
466 15-04-2016 14:45:00 15.9 C 7.58 g/m*3 15.9 C 14.5 km/h
467 15-04-2016 14:50:00 16.3 C 7.35 g/m*3 16.3 C 35.4 km/h
468 15-04-2016 14:55:00 16.4 C 7.54 g/m*3 16.4 C 37 km/h
469 15-04-2016 15:00:00 16.5 C 7.44 g/m*3 16.5 C 22.5 km/h
470 15-04-2016 15:05:00 16.5 C 7.58 g/m*3 16.5 C 17.7 km/h
471 15-04-2016 15:10:00 16.6 C 7.49 g/m*3 16.6 C 17.7 km/h
472 15-04-2016 15:15:00 16.7 C 7.39 g/m*3 16.7 C 25.7 km/h
473 15-04-2016 15:20:00 16.7 C 7.25 g/m*3 16.7 C 29 km/h
474 15-04-2016 15:25:00 16.8 C 7.43 g/m*3 16.8 C 9.7 km/h
475 15-04-2016 15:30:00 17.1 C 7.42 g/m*3 17.1 C 16.1 km/h
Sensor: Nr:Datum:Temp:Abs-Feuchte:Windchill:Wind:
Aussen-T/F 476 15-04-2016 15:35:00 17.2 C 7.76 g/m*3 17.2 C 12.9 km/h
477 15-04-2016 15:40:00 17.3 C 7.22 g/m*3 17.3 C 17.7 km/h
478 15-04-2016 15:45:00 17.2 C 7.03 g/m*3 17.2 C 20.9 km/h
479 15-04-2016 15:50:00 17.3 C 7.37 g/m*3 17.3 C 14.5 km/h
480 15-04-2016 15:55:00 17.3 C 7.22 g/m*3 17.3 C 27.4 km/h
481 15-04-2016 16:00:00 17.4 C 7.41 g/m*3 17.4 C 25.7 km/h
482 15-04-2016 16:05:00 17.3 C 7.37 g/m*3 17.3 C 12.9 km/h
483 15-04-2016 16:10:00 17.4 C 7.41 g/m*3 17.4 C 20.9 km/h
484 15-04-2016 16:15:00 17.6 C 7.5 g/m*3 17.6 C 19.3 km/h
485 15-04-2016 16:20:00 17.7 C 7.69 g/m*3 17.7 C 14.5 km/h
486 15-04-2016 16:25:00 17.8 C 7.89 g/m*3 17.8 C 9.7 km/h
487 15-04-2016 16:30:00 18.3 C 7.97 g/m*3 18.3 C 12.9 km/h
488 15-04-2016 16:35:00 18.6 C 7.64 g/m*3 18.6 C 19.3 km/h
489 15-04-2016 16:40:00 18.4 C 7.55 g/m*3 18.4 C 17.7 km/h
490 15-04-2016 16:45:00 18.4 C 7.71 g/m*3 18.4 C 16.1 km/h
491 15-04-2016 16:50:00 18.6 C 7.8 g/m*3 18.6 C 17.7 km/h
492 15-04-2016 16:55:00 18.9 C 7.61 g/m*3 18.9 C 16.1 km/h
493 15-04-2016 17:00:00 19 C 7.5 g/m*3 19 C 16.1 km/h
494 15-04-2016 17:05:00 18.8 C 7.09 g/m*3 18.8 C 20.9 km/h
495 15-04-2016 17:10:00 18.7 C 7.36 g/m*3 18.7 C 22.5 km/h
496 15-04-2016 17:15:00 18.7 C 7.04 g/m*3 18.7 C 25.7 km/h
497 15-04-2016 17:20:00 18.6 C 7.32 g/m*3 18.6 C 27.4 km/h
498 15-04-2016 17:25:00 18.5 C 7.28 g/m*3 18.5 C 11.3 km/h
499 15-04-2016 17:30:00 18.4 C 7.08 g/m*3 18.4 C 17.7 km/h
500 15-04-2016 17:35:00 18.4 C 7.08 g/m*3 18.4 C 16.1 km/h
Sensor: Nr:Datum:Temp:Abs-Feuchte:Windchill:Wind:
Aussen-T/F 501 15-04-2016 17:40:00 18.7 C 7.04 g/m*3 18.7 C 17.7 km/h
502 15-04-2016 17:45:00 18.8 C 7.09 g/m*3 18.8 C 17.7 km/h
503 15-04-2016 17:50:00 18.7 C 7.36 g/m*3 18.7 C 11.3 km/h
504 15-04-2016 17:55:00 18.8 C 7.25 g/m*3 18.8 C 19.3 km/h
505 15-04-2016 18:00:00 18.8 C 7.25 g/m*3 18.8 C 14.5 km/h
506 15-04-2016 18:05:00 18.7 C 7.36 g/m*3 18.7 C 16.1 km/h
507 15-04-2016 18:10:00 18.4 C 7.39 g/m*3 18.4 C 12.9 km/h
508 15-04-2016 18:15:00 18.4 C 7.24 g/m*3 18.4 C 14.5 km/h
509 15-04-2016 18:20:00 18.3 C 7.35 g/m*3 18.3 C 20.9 km/h
510 15-04-2016 18:25:00 18.3 C 7.35 g/m*3 18.3 C 9.7 km/h
511 15-04-2016 18:30:00 18.3 C 7.19 g/m*3 18.3 C 6.4 km/h
512 15-04-2016 18:35:00 17.9 C 7.18 g/m*3 17.9 C 9.7 km/h
513 15-04-2016 18:40:00 17.4 C 6.82 g/m*3 17.4 C 14.5 km/h
514 15-04-2016 18:45:00 17.2 C 7.03 g/m*3 17.2 C 11.3 km/h
515 15-04-2016 18:50:00 17.2 C 7.18 g/m*3 17.2 C 16.1 km/h
516 15-04-2016 18:55:00 17.2 C 7.18 g/m*3 17.2 C 14.5 km/h
517 15-04-2016 19:00:00 17.2 C 7.32 g/m*3 17.2 C 9.7 km/h
518 15-04-2016 19:05:00 17.5 C 7.45 g/m*3 17.5 C 11.3 km/h
519 15-04-2016 19:10:00 17.6 C 7.35 g/m*3 17.6 C 12.9 km/h
520 15-04-2016 19:15:00 17.7 C 7.39 g/m*3 17.7 C 16.1 km/h
521 15-04-2016 19:20:00 17.6 C 7.35 g/m*3 17.6 C 19.3 km/h
522 15-04-2016 19:25:00 17.4 C 7.41 g/m*3 17.4 C 9.7 km/h
523 15-04-2016 19:30:00 17.2 C 7.32 g/m*3 17.2 C 17.7 km/h
524 15-04-2016 19:35:00 16.9 C 7.34 g/m*3 16.9 C 12.9 km/h
525 15-04-2016 19:40:00 16.8 C 7.43 g/m*3 16.8 C 12.9 km/h
Sensor: Nr:Datum:Temp:Abs-Feuchte:Windchill:Wind:
Aussen-T/F 526 15-04-2016 19:45:00 16.7 C 7.25 g/m*3 16.7 C 14.5 km/h
527 15-04-2016 19:50:00 16.4 C 7.26 g/m*3 16.4 C 9.7 km/h
528 15-04-2016 19:55:00 16.3 C 7.21 g/m*3 16.3 C 11.3 km/h
529 15-04-2016 20:00:00 16.1 C 7.54 g/m*3 16.1 C 6.4 km/h
530 15-04-2016 20:05:00 15.9 C 7.58 g/m*3 15.9 C 4.8 km/h
531 15-04-2016 20:10:00 15.6 C 7.45 g/m*3 15.6 C 3.2 km/h
532 15-04-2016 20:15:00 15.2 C 7.4 g/m*3 15.2 C 6.4 km/h
533 15-04-2016 20:20:00 14.9 C 7.65 g/m*3 14.9 C 3.2 km/h
534 15-04-2016 20:25:00 14.7 C 7.55 g/m*3 14.7 C 4.8 km/h
535 15-04-2016 20:30:00 14.4 C 7.29 g/m*3 14.4 C 14.5 km/h
536 15-04-2016 20:35:00 14.3 C 7.62 g/m*3 14.3 C 6.4 km/h
537 15-04-2016 20:40:00 14 C 7.36 g/m*3 14 C 3.2 km/h
538 15-04-2016 20:45:00 13.8 C 7.27 g/m*3 13.8 C 3.2 km/h
539 15-04-2016 20:50:00 13.6 C 7.3 g/m*3 13.6 C 8.1 km/h
540 15-04-2016 20:55:00 13.4 C 7.32 g/m*3 13.4 C 6.4 km/h
541 15-04-2016 21:00:00 13.4 C 7.44 g/m*3 13.4 C 3.2 km/h
542 15-04-2016 21:05:00 13.3 C 7.63 g/m*3 13.3 C 4.8 km/h
543 15-04-2016 21:10:00 13.1 C 7.53 g/m*3 13.1 C 3.2 km/h
544 15-04-2016 21:15:00 12.9 C 7.44 g/m*3 12.9 C 8.1 km/h
545 15-04-2016 21:20:00 12.8 C 7.5 g/m*3 12.8 C 3.2 km/h
546 15-04-2016 21:25:00 12.8 C 7.62 g/m*3 12.8 C 3.2 km/h
547 15-04-2016 21:30:00 12.7 C 7.57 g/m*3 12.7 C 3.2 km/h
548 15-04-2016 21:35:00 12.6 C 7.52 g/m*3 12.6 C 3.2 km/h
549 15-04-2016 21:40:00 12.5 C 7.48 g/m*3 12.5 C 4.8 km/h
550 15-04-2016 21:45:00 12.4 C 7.54 g/m*3 12.4 C 3.2 km/h
Sensor: Nr:Datum:Temp:Abs-Feuchte:Windchill:Wind:
Aussen-T/F 551 15-04-2016 21:50:00 12.3 C 7.71 g/m*3 12.3 C 3.2 km/h
552 15-04-2016 21:55:00 12.2 C 7.77 g/m*3 12.2 C 3.2 km/h
553 15-04-2016 22:00:00 11.9 C 7.73 g/m*3 11.9 C 3.2 km/h
554 15-04-2016 22:05:00 11.8 C 7.79 g/m*3 11.8 C 3.2 km/h
555 15-04-2016 22:10:00 11.6 C 7.8 g/m*3 11.6 C 3.2 km/h
556 15-04-2016 22:15:00 11.5 C 7.75 g/m*3 11.5 C 3.2 km/h
557 15-04-2016 22:20:00 11.5 C 7.95 g/m*3 11.5 C 3.2 km/h
558 15-04-2016 22:25:00 11.5 C 7.95 g/m*3 11.5 C 3.2 km/h
559 15-04-2016 22:30:00 11.6 C 8.11 g/m*3 11.6 C 3.2 km/h
560 15-04-2016 22:35:00 11.6 C 8.11 g/m*3 11.6 C 0 km/h
561 15-04-2016 22:40:00 11.6 C 8.11 g/m*3 11.6 C 3.2 km/h
562 15-04-2016 22:45:00 11.6 C 8.11 g/m*3 11.6 C 3.2 km/h
563 15-04-2016 22:50:00 11.6 C 8 g/m*3 11.6 C 3.2 km/h
564 15-04-2016 22:55:00 11.7 C 7.74 g/m*3 11.7 C 3.2 km/h
565 15-04-2016 23:00:00 11.8 C 8.1 g/m*3 11.8 C 3.2 km/h
566 15-04-2016 23:05:00 11.8 C 8.21 g/m*3 11.8 C 4.8 km/h
567 15-04-2016 23:10:00 11.8 C 8.42 g/m*3 11.8 C 4.8 km/h
568 15-04-2016 23:15:00 11.7 C 8.68 g/m*3 11.7 C 3.2 km/h
569 15-04-2016 23:20:00 11.6 C 8.73 g/m*3 11.6 C 4.8 km/h
570 15-04-2016 23:25:00 11.3 C 8.26 g/m*3 11.3 C 6.4 km/h
571 15-04-2016 23:30:00 11.3 C 8.36 g/m*3 11.3 C 4.8 km/h
572 15-04-2016 23:35:00 11.3 C 8.36 g/m*3 11.3 C 4.8 km/h
573 15-04-2016 23:40:00 11.3 C 8.57 g/m*3 11.3 C 3.2 km/h
574 15-04-2016 23:45:00 11.3 C 8.47 g/m*3 11.3 C 3.2 km/h
575 15-04-2016 23:50:00 11.3 C 8.36 g/m*3 11.3 C 1.6 km/h
Sensor: Nr:Datum:Temp:Abs-Feuchte:Windchill:Wind:
Aussen-T/F 576 15-04-2016 23:55:00 11.3 C 8.57 g/m*3 11.3 C 1.6 km/h
577 16-04-2016 00:00:00 11.2 C 8.41 g/m*3 11.2 C 0 km/h
578 16-04-2016 00:05:00 11.1 C 8.36 g/m*3 11.1 C 0 km/h
579 16-04-2016 00:10:00 11 C 8.31 g/m*3 11 C 0 km/h
580 16-04-2016 00:15:00 10.9 C 8.36 g/m*3 10.9 C 0 km/h
581 16-04-2016 00:20:00 10.8 C 8.4 g/m*3 10.8 C 0 km/h
582 16-04-2016 00:25:00 10.8 C 8.4 g/m*3 10.8 C 1.6 km/h
583 16-04-2016 00:30:00 10.8 C 8.5 g/m*3 10.8 C 1.6 km/h
584 16-04-2016 00:35:00 10.7 C 8.35 g/m*3 10.7 C 0 km/h
585 16-04-2016 00:40:00 10.6 C 8.3 g/m*3 10.6 C 1.6 km/h
586 16-04-2016 00:45:00 10.5 C 8.24 g/m*3 10.5 C 1.6 km/h
587 16-04-2016 00:50:00 10.4 C 8.29 g/m*3 10.4 C 1.6 km/h
588 16-04-2016 00:55:00 10.4 C 8.29 g/m*3 10.4 C 0 km/h
589 16-04-2016 01:00:00 10.4 C 8.38 g/m*3 10.4 C 0 km/h
590 16-04-2016 01:05:00 10.4 C 8.38 g/m*3 10.4 C 1.6 km/h
591 16-04-2016 01:10:00 10.4 C 8.48 g/m*3 10.4 C 3.2 km/h
592 16-04-2016 01:15:00 10.5 C 8.53 g/m*3 10.5 C 3.2 km/h
593 16-04-2016 01:20:00 10.7 C 8.64 g/m*3 9.52 C 9.7 km/h
594 16-04-2016 01:25:00 10.8 C 8.7 g/m*3 9.38 C 11.3 km/h
595 16-04-2016 01:30:00 10.9 C 8.55 g/m*3 9.51 C 11.3 km/h
596 16-04-2016 01:35:00 11.2 C 8.72 g/m*3 11.2 C 6.4 km/h
597 16-04-2016 01:40:00 11.3 C 8.77 g/m*3 11.3 C 3.2 km/h
598 16-04-2016 01:45:00 11.3 C 8.77 g/m*3 11.3 C 0 km/h
599 16-04-2016 01:50:00 11.2 C 8.72 g/m*3 11.2 C 0 km/h
600 16-04-2016 01:55:00 11.2 C 8.62 g/m*3 11.2 C 1.6 km/h
Sensor: Nr:Datum:Temp:Abs-Feuchte:Windchill:Wind:
Aussen-T/F 601 16-04-2016 02:00:00 11.2 C 8.72 g/m*3 11.2 C 0 km/h
602 16-04-2016 02:05:00 11.2 C 8.72 g/m*3 11.2 C 0 km/h
603 16-04-2016 02:10:00 11.1 C 8.76 g/m*3 11.1 C 0 km/h
604 16-04-2016 02:15:00 10.9 C 8.65 g/m*3 10.9 C 1.6 km/h
605 16-04-2016 02:20:00 10.9 C 8.65 g/m*3 10.9 C 1.6 km/h
606 16-04-2016 02:25:00 10.8 C 8.6 g/m*3 10.8 C 1.6 km/h
607 16-04-2016 02:30:00 10.7 C 8.55 g/m*3 10.7 C 1.6 km/h
608 16-04-2016 02:35:00 10.6 C 8.59 g/m*3 10.6 C 1.6 km/h
609 16-04-2016 02:40:00 10.6 C 8.59 g/m*3 10.6 C 1.6 km/h
610 16-04-2016 02:45:00 10.5 C 8.53 g/m*3 10.5 C 3.2 km/h
611 16-04-2016 02:50:00 10.4 C 8.48 g/m*3 10.4 C 0 km/h
612 16-04-2016 02:55:00 10.4 C 8.58 g/m*3 10.4 C 1.6 km/h
613 16-04-2016 03:00:00 10.4 C 8.58 g/m*3 10.4 C 3.2 km/h
614 16-04-2016 03:05:00 10.4 C 8.58 g/m*3 10.4 C 4.8 km/h
615 16-04-2016 03:10:00 10.4 C 8.58 g/m*3 10.4 C 3.2 km/h
616 16-04-2016 03:15:00 10.5 C 8.63 g/m*3 10.5 C 0 km/h
617 16-04-2016 03:20:00 10.6 C 8.69 g/m*3 10.6 C 0 km/h
618 16-04-2016 03:25:00 10.6 C 8.69 g/m*3 10.6 C 0 km/h
619 16-04-2016 03:30:00 10.6 C 8.69 g/m*3 10.6 C 0 km/h
620 16-04-2016 03:35:00 10.6 C 8.69 g/m*3 10.6 C 0 km/h
621 16-04-2016 03:40:00 10.7 C 8.74 g/m*3 10.7 C 4.8 km/h
622 16-04-2016 03:45:00 10.7 C 8.74 g/m*3 10.7 C 1.6 km/h
623 16-04-2016 03:50:00 10.7 C 8.64 g/m*3 10.7 C 3.2 km/h
624 16-04-2016 03:55:00 10.7 C 8.64 g/m*3 10.7 C 0 km/h
625 16-04-2016 04:00:00 10.8 C 8.6 g/m*3 10.8 C 1.6 km/h
Sensor: Nr:Datum:Temp:Abs-Feuchte:Windchill:Wind:
Aussen-T/F 626 16-04-2016 04:05:00 10.9 C 8.65 g/m*3 10.9 C 3.2 km/h
627 16-04-2016 04:10:00 10.9 C 8.55 g/m*3 10.9 C 0 km/h
628 16-04-2016 04:15:00 11.1 C 8.66 g/m*3 11.1 C 3.2 km/h
629 16-04-2016 04:20:00 11.1 C 8.56 g/m*3 11.1 C 1.6 km/h
630 16-04-2016 04:25:00 11.2 C 8.62 g/m*3 11.2 C 0 km/h
631 16-04-2016 04:30:00 11.2 C 8.51 g/m*3 11.2 C 0 km/h
632 16-04-2016 04:35:00 11.2 C 8.62 g/m*3 11.2 C 3.2 km/h
633 16-04-2016 04:40:00 11.3 C 8.47 g/m*3 11.3 C 0 km/h
634 16-04-2016 04:45:00 11.3 C 8.57 g/m*3 11.3 C 1.6 km/h
635 16-04-2016 04:50:00 11.3 C 8.57 g/m*3 11.3 C 0 km/h
636 16-04-2016 04:55:00 11.3 C 8.57 g/m*3 11.3 C 0 km/h
637 16-04-2016 05:00:00 11.2 C 8.51 g/m*3 11.2 C 3.2 km/h
638 16-04-2016 05:05:00 11.2 C 8.51 g/m*3 11.2 C 0 km/h
639 16-04-2016 05:10:00 11.2 C 8.62 g/m*3 11.2 C 0 km/h
640 16-04-2016 05:15:00 11.2 C 8.62 g/m*3 11.2 C 0 km/h
641 16-04-2016 05:20:00 11.2 C 8.62 g/m*3 11.2 C 3.2 km/h
642 16-04-2016 05:25:00 11.1 C 8.66 g/m*3 11.1 C 0 km/h
643 16-04-2016 05:30:00 11.1 C 8.66 g/m*3 11.1 C 1.6 km/h
644 16-04-2016 05:35:00 11 C 8.61 g/m*3 11 C 0 km/h
645 16-04-2016 05:40:00 11 C 8.61 g/m*3 11 C 0 km/h
646 16-04-2016 05:45:00 11 C 8.71 g/m*3 11 C 0 km/h
647 16-04-2016 05:50:00 10.9 C 8.65 g/m*3 10.9 C 1.6 km/h
648 16-04-2016 05:55:00 10.9 C 8.55 g/m*3 10.9 C 3.2 km/h
649 16-04-2016 06:00:00 10.9 C 8.55 g/m*3 10.9 C 4.8 km/h
650 16-04-2016 06:05:00 10.9 C 8.65 g/m*3 10.9 C 1.6 km/h
Sensor: Nr:Datum:Temp:Abs-Feuchte:Windchill:Wind:
Aussen-T/F 651 16-04-2016 06:10:00 10.9 C 8.55 g/m*3 10.9 C 1.6 km/h
652 16-04-2016 06:15:00 11 C 8.71 g/m*3 11 C 0 km/h
653 16-04-2016 06:20:00 11 C 8.71 g/m*3 11 C 0 km/h
654 16-04-2016 06:25:00 11 C 8.71 g/m*3 11 C 1.6 km/h
655 16-04-2016 06:30:00 11 C 8.81 g/m*3 11 C 0 km/h
656 16-04-2016 06:35:00 10.9 C 8.75 g/m*3 10.9 C 4.8 km/h
657 16-04-2016 06:40:00 11 C 8.71 g/m*3 11 C 1.6 km/h
658 16-04-2016 06:45:00 11 C 8.71 g/m*3 10.52 C 6.4 km/h
659 16-04-2016 06:50:00 11.1 C 8.66 g/m*3 11.1 C 9.7 km/h
660 16-04-2016 06:55:00 11.2 C 8.62 g/m*3 11.2 C 6.4 km/h
661 16-04-2016 07:00:00 11.3 C 8.67 g/m*3 11.3 C 6.4 km/h
662 16-04-2016 07:05:00 11.3 C 8.67 g/m*3 11.3 C 4.8 km/h
663 16-04-2016 07:10:00 11.3 C 8.67 g/m*3 11.3 C 3.2 km/h
664 16-04-2016 07:15:00 11.3 C 8.67 g/m*3 11.3 C 1.6 km/h
665 16-04-2016 07:20:00 11.3 C 8.77 g/m*3 11.3 C 0 km/h
666 16-04-2016 07:25:00 11.2 C 8.72 g/m*3 11.2 C 0 km/h
667 16-04-2016 07:30:00 11.2 C 8.72 g/m*3 11.2 C 0 km/h
668 16-04-2016 07:35:00 11.2 C 8.72 g/m*3 11.2 C 4.8 km/h
669 16-04-2016 07:40:00 11.2 C 8.72 g/m*3 11.2 C 0 km/h
670 16-04-2016 07:45:00 11.2 C 8.62 g/m*3 11.2 C 4.8 km/h
671 16-04-2016 07:50:00 11.3 C 8.57 g/m*3 11.3 C 9.7 km/h
672 16-04-2016 07:55:00 11.3 C 8.57 g/m*3 11.3 C 6.4 km/h
673 16-04-2016 08:00:00 11.3 C 8.57 g/m*3 11.3 C 8.1 km/h
674 16-04-2016 08:05:00 11.4 C 8.62 g/m*3 11.4 C 4.8 km/h
675 16-04-2016 08:10:00 11.4 C 8.52 g/m*3 11.4 C 6.4 km/h
Sensor: Nr:Datum:Temp:Abs-Feuchte:Windchill:Wind:
Aussen-T/F 676 16-04-2016 08:15:00 11.4 C 8.52 g/m*3 11.4 C 8.1 km/h
677 16-04-2016 08:20:00 11.5 C 8.57 g/m*3 11.5 C 4.8 km/h
678 16-04-2016 08:25:00 11.5 C 8.57 g/m*3 11.5 C 0 km/h
679 16-04-2016 08:30:00 11.6 C 8.63 g/m*3 11.6 C 3.2 km/h
680 16-04-2016 08:35:00 11.6 C 8.63 g/m*3 11.6 C 3.2 km/h
681 16-04-2016 08:40:00 11.6 C 8.63 g/m*3 11.6 C 0 km/h
682 16-04-2016 08:45:00 11.7 C 8.58 g/m*3 11.7 C 3.2 km/h
683 16-04-2016 08:50:00 11.7 C 8.68 g/m*3 11.7 C 3.2 km/h
684 16-04-2016 08:55:00 11.8 C 8.63 g/m*3 11.8 C 8.1 km/h
685 16-04-2016 09:00:00 11.8 C 8.63 g/m*3 11.8 C 4.8 km/h
686 16-04-2016 09:05:00 11.9 C 8.68 g/m*3 11.9 C 4.8 km/h
687 16-04-2016 09:10:00 11.9 C 8.68 g/m*3 11.9 C 9.7 km/h
688 16-04-2016 09:15:00 12.1 C 8.69 g/m*3 12.1 C 12.9 km/h
689 16-04-2016 09:20:00 12.1 C 8.69 g/m*3 12.1 C 8.1 km/h
690 16-04-2016 09:25:00 12.2 C 8.63 g/m*3 12.2 C 12.9 km/h
691 16-04-2016 09:30:00 12.3 C 8.58 g/m*3 12.3 C 12.9 km/h
692 16-04-2016 09:35:00 12.3 C 8.58 g/m*3 12.3 C 11.3 km/h
693 16-04-2016 09:40:00 12.2 C 8.52 g/m*3 12.2 C 6.4 km/h
694 16-04-2016 09:45:00 12.2 C 8.52 g/m*3 12.2 C 12.9 km/h
695 16-04-2016 09:50:00 12.2 C 8.52 g/m*3 12.2 C 9.7 km/h
696 16-04-2016 09:55:00 12.1 C 8.47 g/m*3 12.1 C 11.3 km/h
697 16-04-2016 10:00:00 12.1 C 8.47 g/m*3 12.1 C 6.4 km/h
698 16-04-2016 10:05:00 12.1 C 8.47 g/m*3 12.1 C 4.8 km/h
699 16-04-2016 10:10:00 12.2 C 8.52 g/m*3 12.2 C 4.8 km/h
700 16-04-2016 10:15:00 12.2 C 8.42 g/m*3 12.2 C 9.7 km/h
Sensor: Nr:Datum:Temp:Abs-Feuchte:Windchill:Wind:
Aussen-T/F 701 16-04-2016 10:20:00 12.3 C 8.47 g/m*3 12.3 C 14.5 km/h
702 16-04-2016 10:25:00 12.4 C 8.52 g/m*3 12.4 C 14.5 km/h
703 16-04-2016 10:30:00 12.4 C 8.41 g/m*3 12.4 C 8.1 km/h
704 16-04-2016 10:35:00 12.5 C 8.47 g/m*3 12.5 C 9.7 km/h
705 16-04-2016 10:40:00 12.5 C 8.47 g/m*3 12.5 C 9.7 km/h
706 16-04-2016 10:45:00 12.6 C 8.63 g/m*3 12.6 C 8.1 km/h
707 16-04-2016 10:50:00 12.7 C 8.68 g/m*3 12.7 C 8.1 km/h
708 16-04-2016 10:55:00 12.8 C 8.62 g/m*3 12.8 C 12.9 km/h
709 16-04-2016 11:00:00 12.8 C 8.51 g/m*3 12.8 C 11.3 km/h
710 16-04-2016 11:05:00 12.8 C 8.74 g/m*3 12.8 C 11.3 km/h
711 16-04-2016 11:10:00 12.7 C 8.79 g/m*3 12.7 C 16.1 km/h
712 16-04-2016 11:15:00 12.3 C 8.69 g/m*3 12.3 C 4.8 km/h
713 16-04-2016 11:20:00 12.2 C 8.85 g/m*3 12.2 C 3.2 km/h
714 16-04-2016 11:25:00 12.2 C 8.85 g/m*3 12.2 C 6.4 km/h
715 16-04-2016 11:30:00 12.3 C 8.69 g/m*3 12.3 C 6.4 km/h
716 16-04-2016 11:35:00 12.6 C 8.85 g/m*3 12.6 C 11.3 km/h
717 16-04-2016 11:40:00 13.1 C 8.9 g/m*3 13.1 C 11.3 km/h
718 16-04-2016 11:45:00 13.6 C 8.94 g/m*3 13.6 C 11.3 km/h
719 16-04-2016 11:50:00 13.9 C 8.51 g/m*3 13.9 C 20.9 km/h
720 16-04-2016 11:55:00 14.1 C 8.62 g/m*3 14.1 C 9.7 km/h
721 16-04-2016 12:00:00 14.2 C 8.67 g/m*3 14.2 C 8.1 km/h
722 16-04-2016 12:05:00 14.3 C 8.72 g/m*3 14.3 C 14.5 km/h
723 16-04-2016 12:10:00 14.4 C 8.65 g/m*3 14.4 C 16.1 km/h
724 16-04-2016 12:15:00 14.4 C 8.41 g/m*3 14.4 C 17.7 km/h
725 16-04-2016 12:20:00 14.4 C 8.53 g/m*3 14.4 C 19.3 km/h
Sensor: Nr:Datum:Temp:Abs-Feuchte:Windchill:Wind:
Aussen-T/F 726 16-04-2016 12:25:00 14.5 C 8.58 g/m*3 14.5 C 9.7 km/h
727 16-04-2016 12:30:00 14.6 C 8.38 g/m*3 14.6 C 17.7 km/h
728 16-04-2016 12:35:00 14.4 C 8.28 g/m*3 14.4 C 19.3 km/h
729 16-04-2016 12:40:00 14.3 C 8.11 g/m*3 14.3 C 16.1 km/h
730 16-04-2016 12:45:00 14.2 C 8.18 g/m*3 14.2 C 12.9 km/h
731 16-04-2016 12:50:00 14.3 C 8.35 g/m*3 14.3 C 12.9 km/h
732 16-04-2016 12:55:00 14.3 C 8.48 g/m*3 14.3 C 11.3 km/h
733 16-04-2016 13:00:00 14.6 C 8.26 g/m*3 14.6 C 11.3 km/h
734 16-04-2016 13:05:00 14.8 C 8.23 g/m*3 14.8 C 12.9 km/h
735 16-04-2016 13:10:00 14.9 C 8.03 g/m*3 14.9 C 16.1 km/h
736 16-04-2016 13:15:00 15 C 8.08 g/m*3 15 C 16.1 km/h
737 16-04-2016 13:20:00 14.9 C 8.03 g/m*3 14.9 C 14.5 km/h
738 16-04-2016 13:25:00 15 C 7.95 g/m*3 15 C 14.5 km/h
739 16-04-2016 13:30:00 15.2 C 7.92 g/m*3 15.2 C 16.1 km/h
740 16-04-2016 13:35:00 15.5 C 8.2 g/m*3 15.5 C 17.7 km/h
741 16-04-2016 13:40:00 15.8 C 8.21 g/m*3 15.8 C 14.5 km/h
742 16-04-2016 13:45:00 16 C 8.04 g/m*3 16 C 14.5 km/h
743 16-04-2016 13:50:00 16.1 C 8.22 g/m*3 16.1 C 16.1 km/h
744 16-04-2016 13:55:00 16.2 C 8 g/m*3 16.2 C 19.3 km/h
745 16-04-2016 14:00:00 16.1 C 7.95 g/m*3 16.1 C 16.1 km/h
746 16-04-2016 14:05:00 16.1 C 7.68 g/m*3 16.1 C 14.5 km/h
747 16-04-2016 14:10:00 15.9 C 7.85 g/m*3 15.9 C 11.3 km/h
748 16-04-2016 14:15:00 15.8 C 7.81 g/m*3 15.8 C 14.5 km/h
749 16-04-2016 14:20:00 15.8 C 7.81 g/m*3 15.8 C 9.7 km/h
750 16-04-2016 14:25:00 16 C 7.63 g/m*3 16 C 14.5 km/h
Sensor: Nr:Datum:Temp:Abs-Feuchte:Windchill:Wind:
Aussen-T/F 751 16-04-2016 14:30:00 16.2 C 7.72 g/m*3 16.2 C 19.3 km/h
752 16-04-2016 14:35:00 16.2 C 7.58 g/m*3 16.2 C 16.1 km/h
753 16-04-2016 14:40:00 16.3 C 7.49 g/m*3 16.3 C 16.1 km/h
754 16-04-2016 14:45:00 16.6 C 7.49 g/m*3 16.6 C 22.5 km/h
755 16-04-2016 14:50:00 16.6 C 7.77 g/m*3 16.6 C 11.3 km/h
756 16-04-2016 14:55:00 16.5 C 7.58 g/m*3 16.5 C 16.1 km/h
757 16-04-2016 15:00:00 16.4 C 7.82 g/m*3 16.4 C 8.1 km/h
758 16-04-2016 15:05:00 16.3 C 7.77 g/m*3 16.3 C 9.7 km/h
759 16-04-2016 15:10:00 16.2 C 7.72 g/m*3 16.2 C 9.7 km/h
760 16-04-2016 15:15:00 16.1 C 7.81 g/m*3 16.1 C 9.7 km/h
761 16-04-2016 15:20:00 15.8 C 7.54 g/m*3 15.8 C 9.7 km/h
762 16-04-2016 15:25:00 15.7 C 7.63 g/m*3 15.7 C 12.9 km/h
763 16-04-2016 15:30:00 15.6 C 7.71 g/m*3 15.6 C 9.7 km/h
764 16-04-2016 15:35:00 15.6 C 7.71 g/m*3 15.6 C 9.7 km/h
765 16-04-2016 15:40:00 15.6 C 8.78 g/m*3 15.6 C 11.3 km/h
766 16-04-2016 15:45:00 15.1 C 9.42 g/m*3 15.1 C 8.1 km/h
767 16-04-2016 15:50:00 13.9 C 9.23 g/m*3 13.9 C 9.7 km/h
768 16-04-2016 15:55:00 13.1 C 9.24 g/m*3 13.1 C 8.1 km/h
769 16-04-2016 16:00:00 12.8 C 9.52 g/m*3 12.8 C 4.8 km/h
770 16-04-2016 16:05:00 12.8 C 9.86 g/m*3 12.8 C 3.2 km/h
771 16-04-2016 16:10:00 13.1 C 10.16 g/m*3 13.1 C 0 km/h
772 16-04-2016 16:15:00 13.2 C 10.22 g/m*3 13.2 C 1.6 km/h
773 16-04-2016 16:20:00 13.7 C 10.42 g/m*3 13.7 C 0 km/h
774 16-04-2016 16:25:00 14.1 C 10.32 g/m*3 14.1 C 4.8 km/h
775 16-04-2016 16:30:00 14.8 C 10.77 g/m*3 14.8 C 3.2 km/h
Sensor: Nr:Datum:Temp:Abs-Feuchte:Windchill:Wind:
Aussen-T/F 776 16-04-2016 16:35:00 15.4 C 10.9 g/m*3 15.4 C 1.6 km/h
777 16-04-2016 16:40:00 15.7 C 10.03 g/m*3 15.7 C 8.1 km/h
778 16-04-2016 16:45:00 16.1 C 10.83 g/m*3 16.1 C 11.3 km/h
779 16-04-2016 16:50:00 16.2 C 9.38 g/m*3 16.2 C 9.7 km/h
780 16-04-2016 16:55:00 16.2 C 10.07 g/m*3 16.2 C 8.1 km/h
781 16-04-2016 17:00:00 16.1 C 9.05 g/m*3 16.1 C 9.7 km/h
782 16-04-2016 17:05:00 15.8 C 9.42 g/m*3 15.8 C 8.1 km/h
783 16-04-2016 17:10:00 15.4 C 9.46 g/m*3 15.4 C 11.3 km/h
784 16-04-2016 17:15:00 15.2 C 9.86 g/m*3 15.2 C 1.6 km/h
785 16-04-2016 17:20:00 14.9 C 9.94 g/m*3 14.9 C 3.2 km/h
786 16-04-2016 17:25:00 14.6 C 9.76 g/m*3 14.6 C 1.6 km/h
787 16-04-2016 17:30:00 14.3 C 9.21 g/m*3 14.3 C 12.9 km/h
788 16-04-2016 17:35:00 14.3 C 8.35 g/m*3 14.3 C 14.5 km/h
789 16-04-2016 17:40:00 14.4 C 8.41 g/m*3 14.4 C 6.4 km/h
790 16-04-2016 17:45:00 14.6 C 8.63 g/m*3 14.6 C 3.2 km/h
791 16-04-2016 17:50:00 14.6 C 9.64 g/m*3 14.6 C 3.2 km/h
792 16-04-2016 17:55:00 14.3 C 8.6 g/m*3 14.3 C 8.1 km/h
793 16-04-2016 18:00:00 14.1 C 9.34 g/m*3 14.1 C 4.8 km/h
794 16-04-2016 18:05:00 13.8 C 9.65 g/m*3 13.8 C 3.2 km/h
795 16-04-2016 18:10:00 13.2 C 8.73 g/m*3 13.2 C 19.3 km/h
796 16-04-2016 18:15:00 12.6 C 8.41 g/m*3 12.6 C 16.1 km/h
797 16-04-2016 18:20:00 12.2 C 8.42 g/m*3 12.2 C 8.1 km/h
798 16-04-2016 18:25:00 12 C 8.74 g/m*3 12 C 3.2 km/h
799 16-04-2016 18:30:00 11.8 C 8.84 g/m*3 11.8 C 4.8 km/h
800 16-04-2016 18:35:00 11.7 C 8.89 g/m*3 11.7 C 3.2 km/h
Sensor: Nr:Datum:Temp:Abs-Feuchte:Windchill:Wind:
Aussen-T/F 801 16-04-2016 18:40:00 11.6 C 8.94 g/m*3 11.6 C 3.2 km/h
802 16-04-2016 18:45:00 11.4 C 8.93 g/m*3 11.4 C 1.6 km/h
803 16-04-2016 18:50:00 11.3 C 8.87 g/m*3 11.3 C 1.6 km/h
804 16-04-2016 18:55:00 11.3 C 8.98 g/m*3 11.3 C 0 km/h
805 16-04-2016 19:00:00 11.3 C 8.98 g/m*3 11.3 C 3.2 km/h
806 16-04-2016 19:05:00 11.2 C 8.82 g/m*3 11.2 C 11.3 km/h
807 16-04-2016 19:10:00 11.2 C 8.51 g/m*3 11.2 C 12.9 km/h
808 16-04-2016 19:15:00 11.2 C 8.62 g/m*3 11.2 C 6.4 km/h
809 16-04-2016 19:20:00 11.2 C 8.72 g/m*3 11.2 C 11.3 km/h
810 16-04-2016 19:25:00 11.1 C 8.66 g/m*3 11.1 C 4.8 km/h
811 16-04-2016 19:30:00 10.9 C 8.65 g/m*3 10.9 C 4.8 km/h
812 16-04-2016 19:35:00 10.8 C 8.7 g/m*3 10.8 C 3.2 km/h
813 16-04-2016 19:40:00 10.7 C 8.74 g/m*3 10.7 C 1.6 km/h
814 16-04-2016 19:45:00 10.6 C 8.69 g/m*3 10.6 C 3.2 km/h
815 16-04-2016 19:50:00 10.4 C 8.67 g/m*3 10.4 C 1.6 km/h
816 16-04-2016 19:55:00 10.3 C 8.62 g/m*3 10.3 C 3.2 km/h
817 16-04-2016 20:00:00 10.2 C 8.66 g/m*3 10.2 C 1.6 km/h
818 16-04-2016 20:05:00 10.1 C 8.61 g/m*3 10.1 C 3.2 km/h
819 16-04-2016 20:10:00 10.1 C 8.61 g/m*3 10.1 C 1.6 km/h
820 16-04-2016 20:15:00 10 C 8.64 g/m*3 10 C 0 km/h
821 16-04-2016 20:20:00 10 C 8.64 g/m*3 10 C 1.6 km/h
822 16-04-2016 20:25:00 9.9 C 8.59 g/m*3 9.9 C 1.6 km/h
823 16-04-2016 20:30:00 9.9 C 8.59 g/m*3 9.9 C 0 km/h
824 16-04-2016 20:35:00 9.8 C 8.54 g/m*3 9.8 C 3.2 km/h
825 16-04-2016 20:40:00 9.8 C 8.54 g/m*3 9.8 C 0 km/h
Sensor: Nr:Datum:Temp:Abs-Feuchte:Windchill:Wind:
Aussen-T/F 826 16-04-2016 20:45:00 9.8 C 8.63 g/m*3 9.8 C 1.6 km/h
827 16-04-2016 20:50:00 9.8 C 8.63 g/m*3 9.8 C 0 km/h
828 16-04-2016 20:55:00 9.7 C 8.57 g/m*3 9.7 C 0 km/h
829 16-04-2016 21:00:00 9.7 C 8.57 g/m*3 9.7 C 1.6 km/h
830 16-04-2016 21:05:00 9.7 C 8.57 g/m*3 9.7 C 3.2 km/h
831 16-04-2016 21:10:00 9.7 C 8.57 g/m*3 9.7 C 3.2 km/h
832 16-04-2016 21:15:00 9.6 C 8.52 g/m*3 9.6 C 3.2 km/h
833 16-04-2016 21:20:00 9.6 C 8.52 g/m*3 9.6 C 1.6 km/h
834 16-04-2016 21:25:00 9.6 C 8.52 g/m*3 9.6 C 3.2 km/h
835 16-04-2016 21:30:00 9.6 C 8.61 g/m*3 9.6 C 1.6 km/h
836 16-04-2016 21:35:00 9.5 C 8.56 g/m*3 9.5 C 1.6 km/h
837 16-04-2016 21:40:00 9.5 C 8.56 g/m*3 9.5 C 1.6 km/h
838 16-04-2016 21:45:00 9.5 C 8.56 g/m*3 9.5 C 0 km/h
839 16-04-2016 21:50:00 9.5 C 8.56 g/m*3 9.5 C 3.2 km/h
840 16-04-2016 21:55:00 9.5 C 8.56 g/m*3 9.5 C 0 km/h
841 16-04-2016 22:00:00 9.5 C 8.56 g/m*3 9.5 C 3.2 km/h
842 16-04-2016 22:05:00 9.5 C 8.56 g/m*3 9.5 C 3.2 km/h
843 16-04-2016 22:10:00 9.4 C 8.5 g/m*3 9.4 C 1.6 km/h
844 16-04-2016 22:15:00 9.4 C 8.5 g/m*3 9.4 C 3.2 km/h
845 16-04-2016 22:20:00 9.4 C 8.5 g/m*3 9.4 C 1.6 km/h
846 16-04-2016 22:25:00 9.4 C 8.5 g/m*3 9.4 C 3.2 km/h
847 16-04-2016 22:30:00 9.4 C 8.5 g/m*3 9.4 C 3.2 km/h
848 16-04-2016 22:35:00 9.3 C 8.45 g/m*3 9.3 C 3.2 km/h
849 16-04-2016 22:40:00 9.3 C 8.45 g/m*3 9.3 C 3.2 km/h
850 16-04-2016 22:45:00 9.3 C 8.45 g/m*3 9.3 C 1.6 km/h
Sensor: Nr:Datum:Temp:Abs-Feuchte:Windchill:Wind:
Aussen-T/F 851 16-04-2016 22:50:00 9.2 C 8.39 g/m*3 8.45 C 6.4 km/h
852 16-04-2016 22:55:00 9.2 C 8.39 g/m*3 9.2 C 3.2 km/h
853 16-04-2016 23:00:00 9.1 C 8.34 g/m*3 9.1 C 4.8 km/h
854 16-04-2016 23:05:00 9 C 8.29 g/m*3 9 C 4.8 km/h
855 16-04-2016 23:10:00 8.9 C 8.23 g/m*3 8.9 C 1.6 km/h
856 16-04-2016 23:15:00 8.9 C 8.32 g/m*3 8.9 C 3.2 km/h
857 16-04-2016 23:20:00 8.8 C 8.18 g/m*3 8.8 C 3.2 km/h
858 16-04-2016 23:25:00 8.8 C 8.18 g/m*3 8.8 C 3.2 km/h
859 16-04-2016 23:30:00 8.7 C 8.13 g/m*3 8.7 C 3.2 km/h
860 16-04-2016 23:35:00 8.7 C 8.22 g/m*3 8.7 C 1.6 km/h
861 16-04-2016 23:40:00 8.6 C 8.16 g/m*3 8.6 C 0 km/h
862 16-04-2016 23:45:00 8.6 C 8.16 g/m*3 8.6 C 0 km/h
863 16-04-2016 23:50:00 8.6 C 8.16 g/m*3 8.6 C 0 km/h
864 16-04-2016 23:55:00 8.7 C 8.22 g/m*3 8.7 C 1.6 km/h

Legende:
   Min
   Max


Maximal/Minimal-Werte vom 14.04.2016 - 16.04.2016

Sensor Min Max Avg
Temp
(Aussen-T/F)
5.2 °C
14-04-2016  05:45:00
19 °C
15-04-2016  17:00:00
11.88 °C
Abs-Feuchte
(Aussen-T/F)
6.36 g/m*3
14-04-2016  16:50:00
10.9 g/m*3
16-04-2016  16:35:00
8.12 g/m*3
Windchill
(Aussen-T/F)
4.63 C
14-04-2016  08:40:00
19 C
15-04-2016  17:00:00
11.84 C

Die Daten stammen von einer Davis Vantage Pro 2 Wetter-Station und werden unter Linux mit der Software wview2wettercgi und aufbereitet. Alle Angaben erfolgen ohne Gewähr für ihre Vollständigkeit oder Richtigkeit.
Kontakt: Rainer Krienke krienke@uni-koblenz.de . Meine Webseiten an der Uni Koblenz oder privat.
Version: $Revision: 0.78 $